Terminal Aerodrome Forecast
Issued by NWS Mt. Holly, NJ

Home | Current Version | Previous Version | Text Only | Print | Product List | Glossary On
Versions: 1 2 3 4 5 6 7 8 9 10 11 12 13 14 15 16 17 18 19 20 21 22 23 24 25 26 27 28 29 30 31 32 33 34 35 36 37 38 39 40 41 42 43 44 45 46 47 48
000
FTUS41 KPHI 212300
TAFABE
TAF
KABE 212333Z 2200/2224 VRB03KT P6SM FEW025 BKN200
     FM220100 23005KT P6SM BKN040
      TEMPO 2201/2203 -SHRA
     FM220400 29006KT P6SM BKN100
     FM221300 30012G20KT P6SM SCT050
     FM222100 31013KT P6SM SKC=

USA.gov is the U.S. government's official web portal to all federal, state and local government web resources and services.